Time,TemperatureF,DewpointF,PressureIn,WindDirection,WindDirectionDegrees,WindSpeedMPH,WindSpeedGustMPH,Humidity,HourlyPrecipIn,Conditions,Clouds,dailyrainin,SoftwareType,DateUTC
2013-04-19 00:01:00,33.1,27.3,29.92,SW,220,18.4,18.4,79,0.00,RA,SKC,0.00,WeatherDisplay:10.37,2013-04-19 05:01:00,
2013-04-19 00:06:00,33.1,27.3,29.91,SW,230,22.3,22.3,79,0.00,RA,SKC,0.00,WeatherDisplay:10.37,2013-04-19 05:06:00,
2013-04-19 00:11:00,33.1,27.3,29.92,SSW,213,18.0,18.0,79,0.00,CLR,SKC,0.00,WeatherDisplay:10.37,2013-04-19 05:11:00,
2013-04-19 00:16:00,33.0,26.9,29.92,WSW,237,18.4,18.4,78,0.00,CLR,SKC,0.00,WeatherDisplay:10.37,2013-04-19 05:16:00,
2013-04-19 00:21:00,33.0,26.9,29.91,SSW,212,19.6,19.6,78,0.00,CLR,SKC,0.00,WeatherDisplay:10.37,2013-04-19 05:21:00,
2013-04-19 00:26:00,33.0,26.6,29.91,WSW,242,21.2,21.2,77,0.00,CLR,SKC,0.00,WeatherDisplay:10.37,2013-04-19 05:26:00,
2013-04-19 00:31:00,33.0,26.9,29.91,SW,236,18.0,18.0,78,0.00,CLR,SKC,0.00,WeatherDisplay:10.37,2013-04-19 05:31:00,
2013-04-19 00:36:00,32.9,26.8,29.91,SSW,210,17.3,17.3,78,0.00,CLR,SKC,0.00,WeatherDisplay:10.37,2013-04-19 05:36:00,
2013-04-19 00:41:00,32.8,27.0,29.91,SW,217,17.3,17.3,79,0.00,CLR,SKC,0.00,WeatherDisplay:10.37,2013-04-19 05:41:00,
2013-04-19 00:46:00,32.9,26.8,29.91,SW,222,19.6,19.6,78,0.00,CLR,SKC,0.00,WeatherDisplay:10.37,2013-04-19 05:46:00,
2013-04-19 00:51:00,32.8,27.0,29.91,SW,226,23.3,23.3,79,0.00,CLR,SKC,0.00,WeatherDisplay:10.37,2013-04-19 05:51:00,
2013-04-19 00:56:00,32.8,27.0,29.91,SW,220,13.8,13.8,79,0.00,CLR,SKC,0.00,WeatherDisplay:10.37,2013-04-19 05:56:00,
2013-04-19 01:01:00,32.7,26.9,29.91,SSW,213,20.1,20.1,79,0.00,CLR,SKC,0.00,WeatherDisplay:10.37,2013-04-19 06:01:00,
2013-04-19 01:06:00,32.7,26.9,29.91,SSW,213,20.7,20.7,79,0.00,CLR,SKC,0.00,WeatherDisplay:10.37,2013-04-19 06:06:00,
2013-04-19 01:11:00,32.7,26.9,29.91,SW,230,19.6,19.6,79,0.00,CLR,SKC,0.00,WeatherDisplay:10.37,2013-04-19 06:11:00,
2013-04-19 01:16:00,32.7,26.6,29.91,SW,215,19.6,19.6,78,0.00,CLR,SKC,0.00,WeatherDisplay:10.37,2013-04-19 06:16:00,
2013-04-19 01:21:00,32.7,26.9,29.91,SW,220,19.6,19.6,79,0.00,CLR,SKC,0.00,WeatherDisplay:10.37,2013-04-19 06:21:00,
2013-04-19 01:26:00,32.7,26.9,29.91,SSW,212,21.2,21.2,79,0.00,CLR,SKC,0.00,WeatherDisplay:10.37,2013-04-19 06:26:00,
2013-04-19 01:31:00,32.5,26.7,29.91,SW,219,17.3,17.3,79,0.00,CLR,SKC,0.00,WeatherDisplay:10.37,2013-04-19 06:31:00,
2013-04-19 01:36:00,32.3,26.5,29.91,SW,224,18.0,18.0,79,0.00,CLR,SKC,0.00,WeatherDisplay:10.37,2013-04-19 06:36:00,
2013-04-19 01:41:00,32.2,26.4,29.91,SSW,201,15.9,15.9,79,0.00,CLR,SKC,0.00,WeatherDisplay:10.37,2013-04-19 06:41:00,
2013-04-19 01:46:00,32.1,26.3,29.91,SW,217,17.3,17.3,79,0.00,CLR,SKC,0.00,WeatherDisplay:10.37,2013-04-19 06:46:00,
2013-04-19 01:51:00,32.1,26.3,29.91,SW,225,19.6,19.6,79,0.00,CLR,SKC,0.00,WeatherDisplay:10.37,2013-04-19 06:51:00,
2013-04-19 01:56:00,32.0,26.2,29.91,SSW,210,15.9,15.9,79,0.00,CLR,SKC,0.00,WeatherDisplay:10.37,2013-04-19 06:56:00,
2013-04-19 02:01:00,31.9,26.1,29.91,SW,227,18.4,18.4,79,0.00,CLR,SKC,0.00,WeatherDisplay:10.37,2013-04-19 07:01:00,
2013-04-19 02:06:00,31.9,26.1,29.91,SW,226,17.3,17.3,79,0.00,CLR,SKC,0.00,WeatherDisplay:10.37,2013-04-19 07:06:00,
2013-04-19 02:11:00,31.8,26.0,29.90,SW,215,17.0,17.0,79,0.00,CLR,SKC,0.00,WeatherDisplay:10.37,2013-04-19 07:11:00,
2013-04-19 02:16:00,31.8,25.4,29.90,SW,217,20.7,20.7,77,0.00,CLR,SKC,0.00,WeatherDisplay:10.37,2013-04-19 07:16:00,
2013-04-19 02:21:00,31.8,25.7,29.90,SW,216,19.6,19.6,78,0.00,CLR,SKC,0.00,WeatherDisplay:10.37,2013-04-19 07:21:00,
2013-04-19 02:26:00,31.7,25.3,29.91,SW,216,17.3,17.3,77,0.00,CLR,SKC,0.00,WeatherDisplay:10.37,2013-04-19 07:26:00,
2013-04-19 02:31:00,31.6,25.2,29.91,WSW,238,13.8,13.8,77,0.00,CLR,SKC,0.00,WeatherDisplay:10.37,2013-04-19 07:31:00,
2013-04-19 02:36:00,31.5,25.1,29.90,SW,217,15.0,15.0,77,0.00,CLR,SKC,0.00,WeatherDisplay:10.37,2013-04-19 07:36:00,
2013-04-19 02:42:00,31.5,24.8,29.90,SW,221,17.3,17.3,76,0.00,CLR,SKC,0.00,WeatherDisplay:10.37,2013-04-19 07:42:00,
2013-04-19 02:47:00,31.5,24.8,29.90,SW,215,16.1,16.1,76,0.00,CLR,SKC,0.00,WeatherDisplay:10.37,2013-04-19 07:47:00,
2013-04-19 02:52:00,31.3,24.9,29.90,SSW,207,12.7,12.7,77,0.00,CLR,SKC,0.00,WeatherDisplay:10.37,2013-04-19 07:52:00,
2013-04-19 02:57:00,31.3,24.6,29.90,SSW,205,18.4,18.4,76,0.00,CLR,SKC,0.00,WeatherDisplay:10.37,2013-04-19 07:57:00,
2013-04-19 03:02:00,31.4,24.7,29.90,SW,224,18.4,18.4,76,0.00,CLR,SKC,0.00,WeatherDisplay:10.37,2013-04-19 08:02:00,
2013-04-19 03:07:00,31.3,24.6,29.90,SSW,210,16.1,16.1,76,0.00,CLR,SKC,0.00,WeatherDisplay:10.37,2013-04-19 08:07:00,
2013-04-19 03:12:00,31.3,24.3,29.90,SSW,203,20.7,20.7,75,0.00,CLR,SKC,0.00,WeatherDisplay:10.37,2013-04-19 08:12:00,
2013-04-19 03:17:00,31.2,24.2,29.90,SSW,206,15.0,15.0,75,0.00,CLR,SKC,0.00,WeatherDisplay:10.37,2013-04-19 08:17:00,
2013-04-19 03:22:00,31.2,24.2,29.90,SW,214,17.3,17.3,75,0.00,CLR,SKC,0.00,WeatherDisplay:10.37,2013-04-19 08:22:00,
2013-04-19 03:27:00,31.2,23.9,29.90,SSW,202,19.1,19.1,74,0.00,CLR,SKC,0.00,WeatherDisplay:10.37,2013-04-19 08:27:00,
2013-04-19 03:32:00,31.1,24.1,29.90,SSW,212,15.9,15.9,75,0.00,CLR,SKC,0.00,WeatherDisplay:10.37,2013-04-19 08:32:00,
2013-04-19 03:37:00,31.0,24.0,29.90,SSW,205,13.8,13.8,75,0.00,CLR,SKC,0.00,WeatherDisplay:10.37,2013-04-19 08:37:00,
2013-04-19 03:42:00,31.0,24.0,29.90,SW,228,17.3,17.3,75,0.00,CLR,SKC,0.00,WeatherDisplay:10.37,2013-04-19 08:42:00,
2013-04-19 03:47:00,31.0,24.0,29.90,SSW,206,14.8,14.8,75,0.00,CLR,SKC,0.00,WeatherDisplay:10.37,2013-04-19 08:47:00,
2013-04-19 03:52:00,31.0,24.0,29.90,SSW,212,13.8,13.8,75,0.00,CLR,SKC,0.00,WeatherDisplay:10.37,2013-04-19 08:52:00,
2013-04-19 03:57:00,30.9,23.6,29.90,SW,222,20.7,20.7,74,0.00,CLR,SKC,0.00,WeatherDisplay:10.37,2013-04-19 08:57:00,
2013-04-19 04:02:00,30.8,23.8,29.90,SW,224,12.7,12.7,75,0.00,CLR,SKC,0.00,WeatherDisplay:10.37,2013-04-19 09:02:00,
2013-04-19 04:07:00,30.8,23.8,29.90,SSW,212,10.6,10.6,75,0.00,CLR,SKC,0.00,WeatherDisplay:10.37,2013-04-19 09:07:00,
2013-04-19 04:12:00,30.8,23.5,29.90,South,188,17.3,17.3,74,0.00,CLR,SKC,0.00,WeatherDisplay:10.37,2013-04-19 09:12:00,
2013-04-19 04:17:00,30.7,23.4,29.90,SSW,207,16.1,16.1,74,0.00,CLR,SKC,0.00,WeatherDisplay:10.37,2013-04-19 09:17:00,
2013-04-19 04:22:00,30.8,23.5,29.90,SSW,212,20.7,20.7,74,0.00,CLR,SKC,0.00,WeatherDisplay:10.37,2013-04-19 09:22:00,
2013-04-19 04:27:00,30.7,23.7,29.90,SW,225,13.8,13.8,75,0.00,CLR,SKC,0.00,WeatherDisplay:10.37,2013-04-19 09:27:00,
2013-04-19 04:32:00,30.6,23.6,29.90,SW,227,13.8,13.8,75,0.00,CLR,SKC,0.00,WeatherDisplay:10.37,2013-04-19 09:32:00,
2013-04-19 04:37:00,30.6,23.6,29.90,SW,215,17.0,17.0,75,0.00,CLR,SKC,0.00,WeatherDisplay:10.37,2013-04-19 09:37:00,
2013-04-19 04:42:00,30.5,23.5,29.90,SW,221,15.9,15.9,75,0.00,CLR,SKC,0.00,WeatherDisplay:10.37,2013-04-19 09:42:00,
2013-04-19 04:47:00,30.4,23.4,29.90,SW,216,13.8,13.8,75,0.00,CLR,SKC,0.00,WeatherDisplay:10.37,2013-04-19 09:47:00,
2013-04-19 04:52:00,30.4,23.4,29.90,SSW,205,13.8,13.8,75,0.00,CLR,SKC,0.00,WeatherDisplay:10.37,2013-04-19 09:52:00,
2013-04-19 04:57:00,30.3,23.3,29.91,SSW,193,15.0,15.0,75,0.00,CLR,SKC,0.00,WeatherDisplay:10.37,2013-04-19 09:57:00,
2013-04-19 05:02:00,30.2,23.5,29.91,SSW,212,13.8,13.8,76,0.00,CLR,SKC,0.00,WeatherDisplay:10.37,2013-04-19 10:02:00,
2013-04-19 05:07:00,30.1,23.4,29.91,SSW,202,12.7,12.7,76,0.00,CLR,SKC,0.00,WeatherDisplay:10.37,2013-04-19 10:07:00,
2013-04-19 05:12:00,30.1,23.4,29.91,South,190,15.0,15.0,76,0.00,CLR,SKC,0.00,WeatherDisplay:10.37,2013-04-19 10:12:00,
2013-04-19 05:17:00,30.0,23.4,29.91,SW,221,11.7,11.7,76,0.00,CLR,SKC,0.00,WeatherDisplay:10.37,2013-04-19 10:17:00,
2013-04-19 05:22:00,29.9,23.3,29.91,SSW,203,15.0,15.0,76,0.00,CLR,SKC,0.00,WeatherDisplay:10.37,2013-04-19 10:22:00,
2013-04-19 05:27:00,29.8,23.2,29.91,SW,230,17.0,17.0,76,0.00,CLR,SKC,0.00,WeatherDisplay:10.37,2013-04-19 10:27:00,
2013-04-19 05:32:00,29.8,23.2,29.91,SSW,210,12.7,12.7,76,0.00,CLR,SKC,0.00,WeatherDisplay:10.37,2013-04-19 10:32:00,
2013-04-19 05:37:00,29.8,23.2,29.91,SSW,210,12.7,12.7,76,0.00,CLR,SKC,0.00,WeatherDisplay:10.37,2013-04-19 10:37:00,
2013-04-19 05:42:00,29.7,23.1,29.91,SSW,196,13.8,13.8,76,0.00,CLR,SKC,0.00,WeatherDisplay:10.37,2013-04-19 10:42:00,
2013-04-19 05:47:00,29.6,23.0,29.91,SW,226,17.3,17.3,76,0.00,CLR,SKC,0.00,WeatherDisplay:10.37,2013-04-19 10:47:00,
2013-04-19 05:52:00,29.6,23.0,29.92,SSW,207,12.7,12.7,76,0.00,CLR,SKC,0.00,WeatherDisplay:10.37,2013-04-19 10:52:00,
2013-04-19 05:57:00,29.5,22.9,29.92,SW,224,12.7,12.7,76,0.00,CLR,SKC,0.00,WeatherDisplay:10.37,2013-04-19 10:57:00,
2013-04-19 06:02:00,29.4,22.8,29.92,SW,220,12.7,12.7,76,0.00,CLR,SKC,0.00,WeatherDisplay:10.37,2013-04-19 11:02:00,
2013-04-19 06:07:00,29.4,22.8,29.92,SW,229,11.5,11.5,76,0.00,CLR,SKC,0.00,WeatherDisplay:10.37,2013-04-19 11:07:00,
2013-04-19 06:12:00,29.3,22.7,29.92,SW,222,8.5,8.5,76,0.00,CLR,SKC,0.00,WeatherDisplay:10.37,2013-04-19 11:12:00,
2013-04-19 06:17:00,29.1,22.5,29.92,SSW,197,10.4,10.4,76,0.00,CLR,SKC,0.00,WeatherDisplay:10.37,2013-04-19 11:17:00,
2013-04-19 06:22:00,29.1,22.5,29.92,SSW,207,11.7,11.7,76,0.00,CLR,SKC,0.00,WeatherDisplay:10.37,2013-04-19 11:22:00,
2013-04-19 06:27:00,29.0,22.4,29.92,SW,219,14.8,14.8,76,0.00,CLR,SKC,0.00,WeatherDisplay:10.37,2013-04-19 11:27:00,
2013-04-19 06:32:00,29.0,22.4,29.93,SW,219,10.6,10.6,76,0.00,CLR,SKC,0.00,WeatherDisplay:10.37,2013-04-19 11:32:00,
2013-04-19 06:37:00,28.9,22.3,29.93,South,184,11.7,11.7,76,0.00,CLR,SKC,0.00,WeatherDisplay:10.37,2013-04-19 11:37:00,
2013-04-19 06:42:00,28.8,22.2,29.94,SSW,198,7.4,7.4,76,0.00,CLR,SKC,0.00,WeatherDisplay:10.37,2013-04-19 11:42:00,
2013-04-19 06:47:00,28.8,22.2,29.94,South,185,10.6,10.6,76,0.00,CLR,SKC,0.00,WeatherDisplay:10.37,2013-04-19 11:47:00,
2013-04-19 06:52:00,28.8,22.2,29.94,SSW,205,9.5,9.5,76,0.00,CLR,SKC,0.00,WeatherDisplay:10.37,2013-04-19 11:52:00,
2013-04-19 06:57:00,28.8,22.2,29.94,SSW,192,11.7,11.7,76,0.00,CLR,SKC,0.00,WeatherDisplay:10.37,2013-04-19 11:57:00,
2013-04-19 07:02:00,28.9,22.3,29.94,SW,221,13.8,13.8,76,0.00,CLR,SKC,0.00,WeatherDisplay:10.37,2013-04-19 12:02:00,
2013-04-19 07:07:00,29.0,22.1,29.94,SW,214,9.2,9.2,75,0.00,CLR,SKC,0.00,WeatherDisplay:10.37,2013-04-19 12:07:00,
2013-04-19 07:12:00,29.2,22.3,29.94,SW,218,10.4,10.4,75,0.00,CLR,SKC,0.00,WeatherDisplay:10.37,2013-04-19 12:12:00,
2013-04-19 07:17:00,29.5,22.2,29.94,SW,224,12.7,12.7,74,0.00,CLR,SKC,0.00,WeatherDisplay:10.37,2013-04-19 12:17:00,
2013-04-19 07:22:00,29.7,22.1,29.94,SW,224,9.5,9.5,73,0.00,CLR,SKC,0.00,WeatherDisplay:10.37,2013-04-19 12:22:00,
2013-04-19 07:27:00,29.9,22.3,29.94,SSW,210,14.8,14.8,73,0.00,CLR,SKC,0.00,WeatherDisplay:10.37,2013-04-19 12:27:00,
2013-04-19 07:32:00,30.1,22.5,29.94,SSW,212,12.7,12.7,73,0.00,CLR,SKC,0.00,WeatherDisplay:10.37,2013-04-19 12:32:00,
2013-04-19 07:38:00,30.2,22.3,29.95,SSW,212,17.3,17.3,72,0.00,CLR,SKC,0.00,WeatherDisplay:10.37,2013-04-19 12:38:00,
2013-04-19 07:42:00,30.4,22.4,29.95,SW,219,12.7,12.7,72,0.00,CLR,SKC,0.00,WeatherDisplay:10.37,2013-04-19 12:42:00,
2013-04-19 07:48:00,30.7,22.4,29.95,SW,224,16.1,16.1,71,0.00,CLR,SKC,0.00,WeatherDisplay:10.37,2013-04-19 12:48:00,
2013-04-19 07:53:00,30.8,22.2,29.95,SW,220,17.3,17.3,70,0.00,CLR,SKC,0.00,WeatherDisplay:10.37,2013-04-19 12:53:00,
2013-04-19 07:58:00,31.0,22.4,29.95,SW,217,18.4,18.4,70,0.00,CLR,SKC,0.00,WeatherDisplay:10.37,2013-04-19 12:58:00,
2013-04-19 08:03:00,31.3,22.3,29.95,SW,220,15.0,15.0,69,0.00,CLR,SKC,0.00,WeatherDisplay:10.37,2013-04-19 13:03:00,
2013-04-19 08:08:00,31.4,22.7,29.95,SW,217,9.5,9.5,70,0.00,CLR,SKC,0.00,WeatherDisplay:10.37,2013-04-19 13:08:00,
2013-04-19 08:13:00,31.7,22.7,29.95,SSW,213,11.7,11.7,69,0.00,CLR,SKC,0.00,WeatherDisplay:10.37,2013-04-19 13:13:00,
2013-04-19 08:18:00,32.0,22.3,29.95,SW,229,15.0,15.0,67,0.00,CLR,SKC,0.00,WeatherDisplay:10.37,2013-04-19 13:18:00,
2013-04-19 08:23:00,32.2,22.1,29.95,SW,220,15.0,15.0,66,0.00,CLR,SKC,0.00,WeatherDisplay:10.37,2013-04-19 13:23:00,
2013-04-19 08:28:00,32.4,22.3,29.95,SSW,212,17.0,17.0,66,0.00,CLR,SKC,0.00,WeatherDisplay:10.37,2013-04-19 13:28:00,
2013-04-19 08:33:00,32.7,22.6,29.95,SSW,202,18.0,18.0,66,0.00,CLR,SKC,0.00,WeatherDisplay:10.37,2013-04-19 13:33:00,
2013-04-19 08:38:00,32.8,22.7,29.95,SSW,201,13.8,13.8,66,0.00,CLR,SKC,0.00,WeatherDisplay:10.37,2013-04-19 13:38:00,
2013-04-19 08:43:00,33.1,22.2,29.96,SW,214,17.3,17.3,64,0.00,CLR,SKC,0.00,WeatherDisplay:10.37,2013-04-19 13:43:00,
2013-04-19 08:48:00,33.3,22.1,29.96,South,173,25.3,25.3,63,0.00,CLR,SKC,0.00,WeatherDisplay:10.37,2013-04-19 13:48:00,
2013-04-19 08:53:00,33.5,22.6,29.96,SW,217,17.3,17.3,64,0.00,CLR,SKC,0.00,WeatherDisplay:10.37,2013-04-19 13:53:00,
2013-04-19 08:58:00,33.8,22.1,29.96,SW,214,18.4,18.4,62,0.00,CLR,SKC,0.00,WeatherDisplay:10.37,2013-04-19 13:58:00,
2013-04-19 09:03:00,33.9,22.6,29.96,SW,218,18.4,18.4,63,0.00,CLR,SKC,0.00,WeatherDisplay:10.37,2013-04-19 14:03:00,
2013-04-19 09:08:00,34.1,22.4,29.96,WSW,237,20.7,20.7,62,0.00,CLR,SKC,0.00,WeatherDisplay:10.37,2013-04-19 14:08:00,
2013-04-19 09:13:00,34.3,22.6,29.96,South,187,17.3,17.3,62,0.00,CLR,SKC,0.00,WeatherDisplay:10.37,2013-04-19 14:13:00,
2013-04-19 09:18:00,34.5,22.8,29.96,WSW,239,18.4,18.4,62,0.00,CLR,SKC,0.00,WeatherDisplay:10.37,2013-04-19 14:18:00,
2013-04-19 09:23:00,34.2,22.1,29.96,SW,224,17.3,17.3,61,0.00,CLR,SKC,0.00,WeatherDisplay:10.37,2013-04-19 14:23:00,
2013-04-19 09:28:00,34.4,22.7,29.96,SSW,209,19.1,19.1,62,0.00,CLR,SKC,0.00,WeatherDisplay:10.37,2013-04-19 14:28:00,
2013-04-19 09:33:00,34.8,22.7,29.96,SW,224,19.6,19.6,61,0.00,CLR,SKC,0.00,WeatherDisplay:10.37,2013-04-19 14:33:00,
2013-04-19 09:38:00,34.9,23.2,29.96,SW,226,17.3,17.3,62,0.00,CLR,SKC,0.00,WeatherDisplay:10.37,2013-04-19 14:38:00,
2013-04-19 09:43:00,35.3,23.2,29.96,SW,236,15.0,15.0,61,0.00,CLR,SKC,0.00,WeatherDisplay:10.37,2013-04-19 14:43:00,
2013-04-19 09:48:00,35.5,22.2,29.96,SW,220,19.1,19.1,58,0.00,CLR,SKC,0.00,WeatherDisplay:10.37,2013-04-19 14:48:00,
2013-04-19 09:53:00,35.7,22.8,29.96,SW,225,17.0,17.0,59,0.00,CLR,SKC,0.00,WeatherDisplay:10.37,2013-04-19 14:53:00,
2013-04-19 09:58:00,36.1,23.1,29.97,SW,224,17.0,17.0,59,0.00,CLR,SKC,0.00,WeatherDisplay:10.37,2013-04-19 14:58:00,
2013-04-19 10:03:00,36.2,22.8,29.96,SSW,206,16.1,16.1,58,0.00,CLR,SKC,0.00,WeatherDisplay:10.37,2013-04-19 15:03:00,
2013-04-19 10:08:00,36.1,22.3,29.96,SSW,213,18.4,18.4,57,0.00,CLR,SKC,0.00,WeatherDisplay:10.37,2013-04-19 15:08:00,
2013-04-19 10:13:00,36.3,22.1,29.97,SSW,201,19.6,19.6,56,0.00,CLR,SKC,0.00,WeatherDisplay:10.37,2013-04-19 15:13:00,
2013-04-19 10:18:00,36.6,21.1,29.97,SW,233,21.2,21.2,53,0.00,CLR,SKC,0.00,WeatherDisplay:10.37,2013-04-19 15:18:00,
2013-04-19 10:23:00,36.6,21.9,29.97,WSW,240,21.9,21.9,55,0.00,CLR,SKC,0.00,WeatherDisplay:10.37,2013-04-19 15:23:00,
2013-04-19 10:28:00,37.1,22.0,29.97,SSW,210,19.6,19.6,54,0.00,CLR,SKC,0.00,WeatherDisplay:10.37,2013-04-19 15:28:00,
2013-04-19 10:33:00,37.6,23.3,29.97,SSW,200,13.8,13.8,56,0.00,CLR,SKC,0.00,WeatherDisplay:10.37,2013-04-19 15:33:00,
2013-04-19 10:38:00,37.9,23.2,29.97,SW,214,17.3,17.3,55,0.00,CLR,SKC,0.00,WeatherDisplay:10.37,2013-04-19 15:38:00,
2013-04-19 10:43:00,37.9,23.2,29.97,SW,231,17.3,17.3,55,0.00,CLR,SKC,0.00,WeatherDisplay:10.37,2013-04-19 15:43:00,
2013-04-19 10:48:00,38.3,23.1,29.97,SW,216,13.8,13.8,54,0.00,CLR,SKC,0.00,WeatherDisplay:10.37,2013-04-19 15:48:00,
2013-04-19 10:53:00,38.4,22.7,29.97,WSW,238,16.1,16.1,53,0.00,CLR,SKC,0.00,WeatherDisplay:10.37,2013-04-19 15:53:00,
2013-04-19 10:58:00,38.7,23.5,29.97,SW,216,18.0,18.0,54,0.00,CLR,SKC,0.00,WeatherDisplay:10.37,2013-04-19 15:58:00,
2013-04-19 11:03:00,38.8,22.2,29.97,SW,225,18.4,18.4,51,0.00,CLR,SKC,0.00,WeatherDisplay:10.37,2013-04-19 16:03:00,
2013-04-19 11:08:00,39.2,22.6,29.97,SW,226,19.6,19.6,51,0.00,CLR,SKC,0.00,WeatherDisplay:10.37,2013-04-19 16:08:00,
2013-04-19 11:13:00,39.2,21.6,29.97,West,263,16.1,16.1,49,0.00,CLR,SKC,0.00,WeatherDisplay:10.37,2013-04-19 16:13:00,
2013-04-19 11:18:00,39.8,21.2,29.97,SSW,213,20.7,20.7,47,0.00,CLR,SKC,0.00,WeatherDisplay:10.37,2013-04-19 16:18:00,
2013-04-19 11:23:00,39.9,20.8,29.97,SSW,212,17.3,17.3,46,0.00,CLR,SKC,0.00,WeatherDisplay:10.37,2013-04-19 16:23:00,
2013-04-19 11:28:00,40.1,21.5,29.97,SSW,210,18.4,18.4,47,0.00,CLR,SKC,0.00,WeatherDisplay:10.37,2013-04-19 16:28:00,
2013-04-19 11:33:00,40.5,22.8,29.98,SSW,205,18.0,18.0,49,0.00,CLR,SKC,0.00,WeatherDisplay:10.37,2013-04-19 16:33:00,
2013-04-19 11:38:00,40.7,24.0,29.97,SW,218,15.9,15.9,51,0.00,CLR,SKC,0.00,WeatherDisplay:10.37,2013-04-19 16:38:00,
2013-04-19 11:43:00,40.9,23.2,29.98,SSW,194,10.6,10.6,49,0.00,CLR,SKC,0.00,WeatherDisplay:10.37,2013-04-19 16:43:00,
2013-04-19 11:48:00,40.9,20.6,29.98,SW,226,16.1,16.1,44,0.00,CLR,SKC,0.00,WeatherDisplay:10.37,2013-04-19 16:48:00,
2013-04-19 11:53:00,41.2,20.9,29.98,WSW,243,17.3,17.3,44,0.00,CLR,SKC,0.00,WeatherDisplay:10.37,2013-04-19 16:53:00,
2013-04-19 11:58:00,41.1,19.2,29.98,SW,223,18.4,18.4,41,0.00,CLR,SKC,0.00,WeatherDisplay:10.37,2013-04-19 16:58:00,
2013-04-19 12:03:00,41.6,22.8,29.98,SSW,213,22.3,22.3,47,0.00,CLR,SKC,0.00,WeatherDisplay:10.37,2013-04-19 17:03:00,
2013-04-19 12:08:00,41.5,21.2,29.98,SW,219,19.6,19.6,44,0.00,CLR,SKC,0.00,WeatherDisplay:10.37,2013-04-19 17:08:00,
2013-04-19 12:13:00,41.5,21.2,29.98,SSW,205,20.1,20.1,44,0.00,CLR,SKC,0.00,WeatherDisplay:10.37,2013-04-19 17:13:00,
2013-04-19 12:18:00,41.8,20.9,29.98,SSW,207,20.7,20.7,43,0.00,CLR,SKC,0.00,WeatherDisplay:10.37,2013-04-19 17:18:00,
2013-04-19 12:23:00,42.2,23.4,29.98,WSW,245,15.9,15.9,47,0.00,CLR,SKC,0.00,WeatherDisplay:10.37,2013-04-19 17:23:00,
2013-04-19 12:28:00,42.3,21.9,29.98,West,262,19.6,19.6,44,0.00,CLR,SKC,0.00,WeatherDisplay:10.37,2013-04-19 17:28:00,
2013-04-19 12:33:00,42.5,23.2,29.98,SW,224,16.1,16.1,46,0.00,CLR,SKC,0.00,WeatherDisplay:10.37,2013-04-19 17:33:00,
2013-04-19 12:38:00,42.7,22.3,29.98,WSW,239,18.4,18.4,44,0.00,CLR,SKC,0.00,WeatherDisplay:10.37,2013-04-19 17:38:00,
2013-04-19 12:44:00,42.7,21.7,29.98,WSW,246,17.3,17.3,43,0.00,CLR,SKC,0.00,WeatherDisplay:10.37,2013-04-19 17:44:00,
2013-04-19 12:49:00,43.3,24.4,29.98,SW,221,18.0,18.0,47,0.00,CLR,SKC,0.00,WeatherDisplay:10.37,2013-04-19 17:49:00,
2013-04-19 12:54:00,43.4,22.4,29.98,WSW,238,18.4,18.4,43,0.00,CLR,SKC,0.00,WeatherDisplay:10.37,2013-04-19 17:54:00,
2013-04-19 12:59:00,43.5,24.6,29.98,SW,228,13.8,13.8,47,0.00,CLR,SKC,0.00,WeatherDisplay:10.37,2013-04-19 17:59:00,
2013-04-19 13:04:00,44.1,24.1,29.98,SW,226,18.4,18.4,45,0.00,CLR,SKC,0.00,WeatherDisplay:10.37,2013-04-19 18:04:00,
2013-04-19 13:09:00,44.2,23.1,29.98,SW,222,19.6,19.6,43,0.00,CLR,SKC,0.00,WeatherDisplay:10.37,2013-04-19 18:09:00,
2013-04-19 13:14:00,44.0,25.5,29.98,WSW,248,17.3,17.3,48,0.00,CLR,SKC,0.00,WeatherDisplay:10.37,2013-04-19 18:14:00,
2013-04-19 13:19:00,44.3,23.2,29.98,SSW,193,20.7,20.7,43,0.00,CLR,SKC,0.00,WeatherDisplay:10.37,2013-04-19 18:19:00,
2013-04-19 13:24:00,44.2,23.1,29.98,SW,231,21.2,21.2,43,0.00,CLR,SKC,0.00,WeatherDisplay:10.37,2013-04-19 18:24:00,
2013-04-19 13:29:00,44.8,24.2,29.98,SSW,212,21.2,21.2,44,0.00,CLR,SKC,0.00,WeatherDisplay:10.37,2013-04-19 18:29:00,
2013-04-19 13:34:00,44.8,23.6,29.98,SSW,199,17.3,17.3,43,0.00,CLR,SKC,0.00,WeatherDisplay:10.37,2013-04-19 18:34:00,
2013-04-19 13:39:00,45.1,23.9,29.98,SSW,210,17.3,17.3,43,0.00,CLR,SKC,0.00,WeatherDisplay:10.37,2013-04-19 18:39:00,
2013-04-19 13:44:00,45.2,23.4,29.98,WSW,253,22.3,22.3,42,0.00,CLR,SKC,0.00,WeatherDisplay:10.37,2013-04-19 18:44:00,
2013-04-19 13:49:00,45.3,24.6,29.98,SW,219,23.3,23.3,44,0.00,CLR,SKC,0.00,WeatherDisplay:10.37,2013-04-19 18:49:00,
2013-04-19 13:54:00,44.9,22.6,29.98,SW,228,15.0,15.0,41,0.00,CLR,SKC,0.00,WeatherDisplay:10.37,2013-04-19 18:54:00,
2013-04-19 13:59:00,45.3,25.2,29.98,SW,232,20.7,20.7,45,0.00,CLR,SKC,0.00,WeatherDisplay:10.37,2013-04-19 18:59:00,
2013-04-19 14:04:00,45.3,23.0,29.99,SSW,204,20.7,20.7,41,0.00,CLR,SKC,0.00,WeatherDisplay:10.37,2013-04-19 19:04:00,
2013-04-19 14:09:00,45.3,23.0,29.98,SW,224,20.7,20.7,41,0.00,CLR,SKC,0.00,WeatherDisplay:10.37,2013-04-19 19:09:00,
2013-04-19 14:14:00,45.6,23.8,29.99,WSW,245,26.5,26.5,42,0.00,CLR,SKC,0.00,WeatherDisplay:10.37,2013-04-19 19:14:00,
2013-04-19 14:19:00,45.7,25.5,29.99,SW,224,18.0,18.0,45,0.00,CLR,SKC,0.00,WeatherDisplay:10.37,2013-04-19 19:19:00,
2013-04-19 14:24:00,46.1,24.8,29.99,SW,226,24.4,24.4,43,0.00,CLR,SKC,0.00,WeatherDisplay:10.37,2013-04-19 19:24:00,
2013-04-19 14:29:00,46.1,23.7,29.99,SW,220,19.6,19.6,41,0.00,CLR,SKC,0.00,WeatherDisplay:10.37,2013-04-19 19:29:00,
2013-04-19 14:34:00,46.0,25.3,29.99,WSW,243,11.7,11.7,44,0.00,CLR,SKC,0.00,WeatherDisplay:10.37,2013-04-19 19:34:00,
2013-04-19 14:39:00,46.3,24.4,29.99,SSW,203,20.7,20.7,42,0.00,CLR,SKC,0.00,WeatherDisplay:10.37,2013-04-19 19:39:00,
2013-04-19 14:44:00,46.5,25.7,29.99,SW,214,19.1,19.1,44,0.00,CLR,SKC,0.00,WeatherDisplay:10.37,2013-04-19 19:44:00,
2013-04-19 14:49:00,46.8,24.9,29.99,SSW,213,15.0,15.0,42,0.00,CLR,SKC,0.00,WeatherDisplay:10.37,2013-04-19 19:49:00,
2013-04-19 14:54:00,46.6,25.3,29.99,WSW,245,23.3,23.3,43,0.00,CLR,SKC,0.00,WeatherDisplay:10.37,2013-04-19 19:54:00,
2013-04-19 14:59:00,46.4,24.5,29.99,SW,229,20.7,20.7,42,0.00,CLR,SKC,0.00,WeatherDisplay:10.37,2013-04-19 19:59:00,
2013-04-19 15:04:00,46.3,23.9,29.99,SW,222,23.3,23.3,41,0.00,CLR,SKC,0.00,WeatherDisplay:10.37,2013-04-19 20:04:00,
2013-04-19 15:09:00,46.3,23.9,29.99,SW,214,19.6,19.6,41,0.00,CLR,SKC,0.00,WeatherDisplay:10.37,2013-04-19 20:09:00,
2013-04-19 15:14:00,46.4,23.9,29.99,SW,221,19.6,19.6,41,0.00,CLR,SKC,0.00,WeatherDisplay:10.37,2013-04-19 20:14:00,
2013-04-19 15:19:00,46.5,24.0,29.99,WSW,245,21.2,21.2,41,0.00,CLR,SKC,0.00,WeatherDisplay:10.37,2013-04-19 20:19:00,
2013-04-19 15:24:00,47.0,23.9,29.99,WSW,256,24.4,24.4,40,0.00,CLR,SKC,0.00,WeatherDisplay:10.37,2013-04-19 20:24:00,
2013-04-19 15:29:00,47.1,23.4,29.99,SW,218,25.4,25.4,39,0.00,CLR,SKC,0.00,WeatherDisplay:10.37,2013-04-19 20:29:00,
2013-04-19 15:34:00,46.9,22.0,29.99,SW,219,26.5,26.5,37,0.00,CLR,SKC,0.00,WeatherDisplay:10.37,2013-04-19 20:34:00,
2013-04-19 15:39:00,47.3,22.9,29.99,SW,226,21.9,21.9,38,0.00,CLR,SKC,0.00,WeatherDisplay:10.37,2013-04-19 20:39:00,
2013-04-19 15:44:00,46.9,22.0,29.98,WSW,242,16.1,16.1,37,0.00,CLR,SKC,0.00,WeatherDisplay:10.37,2013-04-19 20:44:00,
2013-04-19 15:49:00,47.3,21.7,29.98,SW,221,21.2,21.2,36,0.00,CLR,SKC,0.00,WeatherDisplay:10.37,2013-04-19 20:49:00,
2013-04-19 15:54:00,46.8,21.2,29.98,SW,218,26.5,26.5,36,0.00,CLR,SKC,0.00,WeatherDisplay:10.37,2013-04-19 20:54:00,
2013-04-19 15:59:00,46.9,23.2,29.99,SW,231,25.3,25.3,39,0.00,CLR,SKC,0.00,WeatherDisplay:10.37,2013-04-19 20:59:00,
2013-04-19 16:04:00,47.3,22.9,29.99,SW,228,17.3,17.3,38,0.00,CLR,SKC,0.00,WeatherDisplay:10.37,2013-04-19 21:04:00,
2013-04-19 16:09:00,47.9,24.1,29.99,SW,224,18.4,18.4,39,0.00,CLR,SKC,0.00,WeatherDisplay:10.37,2013-04-19 21:09:00,
2013-04-19 16:14:00,47.4,21.7,29.99,SW,233,17.3,17.3,36,0.00,CLR,SKC,0.00,WeatherDisplay:10.37,2013-04-19 21:14:00,
2013-04-19 16:19:00,47.5,23.1,29.99,SSW,209,18.4,18.4,38,0.00,CLR,SKC,0.00,WeatherDisplay:10.37,2013-04-19 21:19:00,
2013-04-19 16:24:00,47.2,22.9,29.99,SSW,212,17.3,17.3,38,0.00,CLR,SKC,0.00,WeatherDisplay:10.37,2013-04-19 21:24:00,
2013-04-19 16:29:00,47.5,22.5,29.99,SW,233,20.1,20.1,37,0.00,CLR,SKC,0.00,WeatherDisplay:10.37,2013-04-19 21:29:00,
2013-04-19 16:34:00,47.8,24.0,29.99,SW,224,16.1,16.1,39,0.00,CLR,SKC,0.00,WeatherDisplay:10.37,2013-04-19 21:34:00,
2013-04-19 16:39:00,47.5,21.2,29.99,SW,220,19.6,19.6,35,0.00,CLR,SKC,0.00,WeatherDisplay:10.37,2013-04-19 21:39:00,
2013-04-19 16:44:00,47.3,21.0,30.00,WSW,240,24.4,24.4,35,0.00,CLR,SKC,0.00,WeatherDisplay:10.37,2013-04-19 21:44:00,
2013-04-19 16:49:00,47.3,20.3,29.99,SW,230,18.4,18.4,34,0.00,CLR,SKC,0.00,WeatherDisplay:10.37,2013-04-19 21:49:00,
2013-04-19 16:54:00,47.5,20.5,30.00,SW,227,13.8,13.8,34,0.00,CLR,SKC,0.00,WeatherDisplay:10.37,2013-04-19 21:54:00,
2013-04-19 16:59:00,47.7,22.0,30.00,SSW,207,18.4,18.4,36,0.00,CLR,SKC,0.00,WeatherDisplay:10.37,2013-04-19 21:59:00,
2013-04-19 17:04:00,47.3,21.7,30.00,SW,232,13.8,13.8,36,0.00,CLR,SKC,0.00,WeatherDisplay:10.37,2013-04-19 22:04:00,
2013-04-19 17:09:00,47.5,20.5,30.00,WSW,240,20.1,20.1,34,0.00,CLR,SKC,0.00,WeatherDisplay:10.37,2013-04-19 22:09:00,
2013-04-19 17:14:00,47.3,21.7,30.00,SW,233,17.3,17.3,36,0.00,CLR,SKC,0.00,WeatherDisplay:10.37,2013-04-19 22:14:00,
2013-04-19 17:19:00,47.4,23.0,30.00,SW,233,19.1,19.1,38,0.00,CLR,SKC,0.00,WeatherDisplay:10.37,2013-04-19 22:19:00,
2013-04-19 17:24:00,47.1,22.8,30.01,WSW,251,18.0,18.0,38,0.00,CLR,SKC,0.00,WeatherDisplay:10.37,2013-04-19 22:24:00,
2013-04-19 17:29:00,47.2,22.9,30.01,SW,226,26.5,26.5,38,0.00,CLR,SKC,0.00,WeatherDisplay:10.37,2013-04-19 22:29:00,
2013-04-19 17:34:00,47.2,23.5,30.01,West,259,17.3,17.3,39,0.00,CLR,SKC,0.00,WeatherDisplay:10.37,2013-04-19 22:34:00,
2013-04-19 17:39:00,47.0,23.3,30.01,WSW,242,16.1,16.1,39,0.00,CLR,SKC,0.00,WeatherDisplay:10.37,2013-04-19 22:39:00,
2013-04-19 17:44:00,47.0,23.9,30.01,SW,233,15.0,15.0,40,0.00,CLR,SKC,0.00,WeatherDisplay:10.37,2013-04-19 22:44:00,
2013-04-19 17:50:00,46.7,23.6,30.01,SW,231,18.4,18.4,40,0.00,CLR,SKC,0.00,WeatherDisplay:10.37,2013-04-19 22:50:00,
2013-04-19 17:55:00,46.9,23.2,30.02,SW,226,19.6,19.6,39,0.00,CLR,SKC,0.00,WeatherDisplay:10.37,2013-04-19 22:55:00,
2013-04-19 18:00:00,46.7,22.4,30.02,SW,223,16.1,16.1,38,0.00,CLR,SKC,0.00,WeatherDisplay:10.37,2013-04-19 23:00:00,
2013-04-19 18:05:00,46.7,23.0,30.02,WNW,301,17.3,17.3,39,0.00,CLR,SKC,0.00,WeatherDisplay:10.37,2013-04-19 23:05:00,
2013-04-19 18:10:00,46.4,22.1,30.02,WSW,250,19.6,19.6,38,0.00,CLR,SKC,0.00,WeatherDisplay:10.37,2013-04-19 23:10:00,
2013-04-19 18:15:00,46.5,22.2,30.02,West,259,13.8,13.8,38,0.00,CLR,SKC,0.00,WeatherDisplay:10.37,2013-04-19 23:15:00,
2013-04-19 18:20:00,46.5,22.8,30.02,WSW,240,16.1,16.1,39,0.00,CLR,SKC,0.00,WeatherDisplay:10.37,2013-04-19 23:20:00,
2013-04-19 18:25:00,46.4,22.8,30.02,West,272,18.4,18.4,39,0.00,CLR,SKC,0.00,WeatherDisplay:10.37,2013-04-19 23:25:00,
2013-04-19 18:30:00,46.2,22.0,30.02,WSW,257,15.0,15.0,38,0.00,CLR,SKC,0.00,WeatherDisplay:10.37,2013-04-19 23:30:00,
2013-04-19 18:35:00,46.4,23.4,30.02,WSW,242,11.7,11.7,40,0.00,CLR,SKC,0.00,WeatherDisplay:10.37,2013-04-19 23:35:00,
2013-04-19 18:40:00,45.9,23.5,30.02,SW,228,13.8,13.8,41,0.00,CLR,SKC,0.00,WeatherDisplay:10.37,2013-04-19 23:40:00,
2013-04-19 18:45:00,45.8,22.8,30.03,WSW,248,11.7,11.7,40,0.00,CLR,SKC,0.00,WeatherDisplay:10.37,2013-04-19 23:45:00,
2013-04-19 18:50:00,45.8,22.8,30.03,SW,233,14.8,14.8,40,0.00,CLR,SKC,0.00,WeatherDisplay:10.37,2013-04-19 23:50:00,
2013-04-19 18:55:00,45.5,21.9,30.03,SSW,210,12.7,12.7,39,0.00,CLR,SKC,0.00,WeatherDisplay:10.37,2013-04-19 23:55:00,
2013-04-19 19:00:00,45.5,22.5,30.03,SSW,207,15.0,15.0,40,0.00,CLR,SKC,0.00,WeatherDisplay:10.37,2013-04-20 00:00:00,
2013-04-19 19:05:00,45.5,23.7,30.03,SW,214,11.7,11.7,42,0.00,CLR,SKC,0.00,WeatherDisplay:10.37,2013-04-20 00:05:00,
2013-04-19 19:10:00,45.3,23.0,30.03,SW,231,10.6,10.6,41,0.00,CLR,SKC,0.00,WeatherDisplay:10.37,2013-04-20 00:10:00,
2013-04-19 19:15:00,45.0,23.3,30.03,West,271,11.7,11.7,42,0.00,CLR,SKC,0.00,WeatherDisplay:10.37,2013-04-20 00:15:00,
2013-04-19 19:20:00,44.8,23.6,30.03,SW,229,8.5,8.5,43,0.00,CLR,SKC,0.00,WeatherDisplay:10.37,2013-04-20 00:20:00,
2013-04-19 19:25:00,44.7,23.0,30.04,WSW,245,12.7,12.7,42,0.00,CLR,SKC,0.00,WeatherDisplay:10.37,2013-04-20 00:25:00,
2013-04-19 19:30:00,44.5,22.8,30.04,WSW,250,12.7,12.7,42,0.00,CLR,SKC,0.00,WeatherDisplay:10.37,2013-04-20 00:30:00,
2013-04-19 19:35:00,44.1,23.6,30.04,SW,235,9.5,9.5,44,0.00,CLR,SKC,0.00,WeatherDisplay:10.37,2013-04-20 00:35:00,
2013-04-19 19:40:00,43.9,23.4,30.04,WSW,243,11.7,11.7,44,0.00,CLR,SKC,0.00,WeatherDisplay:10.37,2013-04-20 00:40:00,
2013-04-19 19:45:00,43.5,23.0,30.04,WSW,242,10.6,10.6,44,0.00,CLR,SKC,0.00,WeatherDisplay:10.37,2013-04-20 00:45:00,
2013-04-19 19:50:00,43.0,23.1,30.04,SW,234,9.5,9.5,45,0.00,CLR,SKC,0.00,WeatherDisplay:10.37,2013-04-20 00:50:00,
2013-04-19 19:55:00,42.5,23.2,30.05,WSW,243,9.5,9.5,46,0.00,CLR,SKC,0.00,WeatherDisplay:10.37,2013-04-20 00:55:00,
2013-04-19 20:00:00,42.2,22.9,30.05,West,259,7.4,7.4,46,0.00,CLR,SKC,0.00,WeatherDisplay:10.37,2013-04-20 01:00:00,
2013-04-19 20:05:00,41.7,23.4,30.05,WSW,246,8.5,8.5,48,0.00,CLR,SKC,0.00,WeatherDisplay:10.37,2013-04-20 01:05:00,
2013-04-19 20:10:00,41.2,23.9,30.05,WSW,255,5.8,5.8,50,0.00,CLR,SKC,0.00,WeatherDisplay:10.37,2013-04-20 01:10:00,
2013-04-19 20:15:00,41.0,24.2,30.06,WSW,257,6.9,6.9,51,0.00,CLR,SKC,0.00,WeatherDisplay:10.37,2013-04-20 01:15:00,
2013-04-19 20:20:00,40.6,24.3,30.06,SW,224,7.4,7.4,52,0.00,CLR,SKC,0.00,WeatherDisplay:10.37,2013-04-20 01:20:00,
2013-04-19 20:25:00,40.2,24.4,30.06,West,259,4.6,4.6,53,0.00,CLR,SKC,0.00,WeatherDisplay:10.37,2013-04-20 01:25:00,
2013-04-19 20:30:00,39.5,24.2,30.06,WNW,288,4.6,4.6,54,0.00,CLR,SKC,0.00,WeatherDisplay:10.37,2013-04-20 01:30:00,
2013-04-19 20:35:00,39.1,24.7,30.06,West,270,4.2,4.2,56,0.00,CLR,SKC,0.00,WeatherDisplay:10.37,2013-04-20 01:35:00,
2013-04-19 20:40:00,38.7,24.8,30.06,SW,236,4.6,4.6,57,0.00,CLR,SKC,0.00,WeatherDisplay:10.37,2013-04-20 01:40:00,
2013-04-19 20:45:00,38.5,25.0,30.06,SW,233,4.6,4.6,58,0.00,CLR,SKC,0.00,WeatherDisplay:10.37,2013-04-20 01:45:00,
2013-04-19 20:50:00,38.1,24.6,30.07,WSW,249,4.6,4.6,58,0.00,CLR,SKC,0.00,WeatherDisplay:10.37,2013-04-20 01:50:00,
2013-04-19 20:55:00,37.9,24.4,30.07,West,265,3.5,3.5,58,0.00,CLR,SKC,0.00,WeatherDisplay:10.37,2013-04-20 01:55:00,
2013-04-19 21:00:00,37.6,24.6,30.07,West,276,4.6,4.6,59,0.00,CLR,SKC,0.00,WeatherDisplay:10.37,2013-04-20 02:00:00,
2013-04-19 21:05:00,37.3,24.3,30.07,West,277,4.6,4.6,59,0.00,CLR,SKC,0.00,WeatherDisplay:10.37,2013-04-20 02:05:00,
2013-04-19 21:10:00,37.1,24.5,30.08,West,273,3.5,3.5,60,0.00,CLR,SKC,0.00,WeatherDisplay:10.37,2013-04-20 02:10:00,
2013-04-19 21:15:00,36.9,24.3,30.08,WNW,284,3.5,3.5,60,0.00,CLR,SKC,0.00,WeatherDisplay:10.37,2013-04-20 02:15:00,
2013-04-19 21:20:00,36.8,24.2,30.08,WNW,283,3.5,3.5,60,0.00,CLR,SKC,0.00,WeatherDisplay:10.37,2013-04-20 02:20:00,
2013-04-19 21:25:00,36.8,24.2,30.08,WSW,237,4.6,4.6,60,0.00,CLR,SKC,0.00,WeatherDisplay:10.37,2013-04-20 02:25:00,
2013-04-19 21:30:00,36.9,24.7,30.08,WNW,283,5.8,5.8,61,0.00,CLR,SKC,0.00,WeatherDisplay:10.37,2013-04-20 02:30:00,
2013-04-19 21:35:00,36.5,24.3,30.09,WSW,247,3.5,3.5,61,0.00,CLR,SKC,0.00,WeatherDisplay:10.37,2013-04-20 02:35:00,
2013-04-19 21:40:00,36.3,24.5,30.09,West,276,4.6,4.6,62,0.00,CLR,SKC,0.00,WeatherDisplay:10.37,2013-04-20 02:40:00,
2013-04-19 21:45:00,36.2,24.4,30.09,West,277,4.6,4.6,62,0.00,CLR,SKC,0.00,WeatherDisplay:10.37,2013-04-20 02:45:00,
2013-04-19 21:50:00,36.0,24.2,30.09,West,259,3.5,3.5,62,0.00,CLR,SKC,0.00,WeatherDisplay:10.37,2013-04-20 02:50:00,
2013-04-19 21:55:00,35.9,24.5,30.09,West,276,3.5,3.5,63,0.00,CLR,SKC,0.00,WeatherDisplay:10.37,2013-04-20 02:55:00,
2013-04-19 22:00:00,35.8,24.4,30.09,West,279,3.5,3.5,63,0.00,CLR,SKC,0.00,WeatherDisplay:10.37,2013-04-20 03:00:00,
2013-04-19 22:05:00,35.5,24.5,30.09,West,266,3.5,3.5,64,0.00,CLR,SKC,0.00,WeatherDisplay:10.37,2013-04-20 03:05:00,
2013-04-19 22:10:00,35.1,24.5,30.10,WNW,283,1.2,1.2,65,0.00,CLR,SKC,0.00,WeatherDisplay:10.37,2013-04-20 03:10:00,
2013-04-19 22:15:00,34.8,24.6,30.10,WNW,285,0.0,0.0,66,0.00,CLR,SKC,0.00,WeatherDisplay:10.37,2013-04-20 03:15:00,
2013-04-19 22:20:00,34.3,24.5,30.10,WNW,282,0.0,0.0,67,0.00,CLR,SKC,0.00,WeatherDisplay:10.37,2013-04-20 03:20:00,
2013-04-19 22:25:00,33.9,24.4,30.10,WNW,282,0.0,0.0,68,0.00,CLR,SKC,0.00,WeatherDisplay:10.37,2013-04-20 03:25:00,
2013-04-19 22:30:00,33.5,24.1,30.10,WNW,282,0.0,0.0,68,0.00,CLR,SKC,0.00,WeatherDisplay:10.37,2013-04-20 03:30:00,
2013-04-19 22:35:00,33.2,24.1,30.10,WNW,282,0.0,0.0,69,0.00,CLR,SKC,0.00,WeatherDisplay:10.37,2013-04-20 03:35:00,
2013-04-19 22:40:00,32.8,24.1,30.11,WNW,282,0.0,0.0,70,0.00,CLR,SKC,0.00,WeatherDisplay:10.37,2013-04-20 03:40:00,
2013-04-19 22:45:00,33.0,23.9,30.11,WNW,282,0.0,0.0,69,0.00,CLR,SKC,0.00,WeatherDisplay:10.37,2013-04-20 03:45:00,
2013-04-19 22:50:00,32.9,23.8,30.11,West,280,0.0,0.0,69,0.00,CLR,SKC,0.00,WeatherDisplay:10.37,2013-04-20 03:50:00,
2013-04-19 22:55:00,32.8,24.1,30.11,WNW,283,0.0,0.0,70,0.00,CLR,SKC,0.00,WeatherDisplay:10.37,2013-04-20 03:55:00,
2013-04-19 23:00:00,32.5,24.5,30.11,WNW,283,0.0,0.0,72,0.00,CLR,SKC,0.00,WeatherDisplay:10.37,2013-04-20 04:00:00,
2013-04-19 23:01:00,32.3,24.3,30.11,WNW,283,0.0,0.0,72,0.00,CLR,SKC,0.00,WeatherDisplay:10.37,2013-04-20 04:01:00,
2013-04-19 23:02:00,32.3,24.3,30.11,WNW,283,0.0,0.0,72,0.00,CLR,SKC,0.00,WeatherDisplay:10.37,2013-04-20 04:02:00,
2013-04-19 23:07:00,32.0,24.3,30.11,WNW,282,0.0,0.0,73,0.00,CLR,SKC,0.00,WeatherDisplay:10.37,2013-04-20 04:07:00,
2013-04-19 23:12:00,31.9,23.9,30.11,WNW,282,0.0,0.0,72,0.00,CLR,SKC,0.00,WeatherDisplay:10.37,2013-04-20 04:12:00,
2013-04-19 23:17:00,31.9,23.9,30.11,WNW,282,0.0,0.0,72,0.00,CLR,SKC,0.00,WeatherDisplay:10.37,2013-04-20 04:17:00,
2013-04-19 23:22:00,31.6,23.6,30.11,WNW,282,0.0,0.0,72,0.00,CLR,SKC,0.00,WeatherDisplay:10.37,2013-04-20 04:22:00,
2013-04-19 23:27:00,30.8,23.2,30.11,WNW,282,0.0,0.0,73,0.00,CLR,SKC,0.00,WeatherDisplay:10.37,2013-04-20 04:27:00,
2013-04-19 23:32:00,30.1,22.8,30.11,WNW,282,0.0,0.0,74,0.00,CLR,SKC,0.00,WeatherDisplay:10.37,2013-04-20 04:32:00,
2013-04-19 23:37:00,29.4,22.5,30.11,WNW,282,0.0,0.0,75,0.00,CLR,SKC,0.00,WeatherDisplay:10.37,2013-04-20 04:37:00,
2013-04-19 23:42:00,28.9,23.2,30.11,WNW,282,0.0,0.0,79,0.00,CLR,SKC,0.00,WeatherDisplay:10.37,2013-04-20 04:42:00,
2013-04-19 23:47:00,28.9,22.9,30.12,WNW,282,0.0,0.0,78,0.00,CLR,SKC,0.00,WeatherDisplay:10.37,2013-04-20 04:47:00,
2013-04-19 23:52:00,28.4,23.0,30.12,WNW,282,0.0,0.0,80,0.00,CLR,SKC,0.00,WeatherDisplay:10.37,2013-04-20 04:52:00,
2013-04-19 23:57:00,28.0,22.9,30.12,WNW,282,0.0,0.0,81,0.00,CLR,SKC,0.00,WeatherDisplay:10.37,2013-04-20 04:57:00,